メインページ
METAR-TAF:

METAR-TAF

空港 :

ウアリ・ブーメディアン空港

アルジェ, アルジェリア

緯度: 36-43N, 経度: 003-15E, 海抜: 25m

現時点の気象観測

当レポートは23分前の22:30(UTC)に作成
の風 5kt
気温 24°C
湿度 78%
気圧 1014 hPa
視程10km以上
1,500メートル以下は雲なし、積乱雲なし

METAR: DAAG 172230Z 09005KT CAVOK 24/20 Q1014

時間: 23:53 (22:53 UTC)

予報

当レポートは5時間53分前の17:00(UTC)に作成
予報は17日の 18時(UTC)から 18日の 18時(UTC)まで有効
北東の風 16kt
視程10km以上
1,500メートル以下は雲なし、積乱雲なし
確率 30% :
17日の 18時(UTC)から 17日の 21時(UTC)まで一時的に
高度2600ftの雲はほとんどない, 塔状積雲.
17日の 19時(UTC)から 17日の 23時(UTC)まで徐々に
変向風 2kt
確率 30% :
17日の 21時(UTC)から 18日の 02時(UTC)まで一時的に
視程: 5000m
高度3000ftの雲はほとんどない, 積乱雲.
激しい雷雨, 小雨
18日の 06時(UTC)から 18日の 09時(UTC)まで徐々に
北/北東の風 12kt
確率 40% :
18日の 07時(UTC)から 18日の 12時(UTC)まで一時的に
北/北東の風 15kt、最大25ktの突風を伴う
18日の 12時(UTC)から 18日の 15時(UTC)まで徐々に
北西の風 12kt

TAF: DAAG 171700Z 1718/1818 04016KT CAVOK PROB30 TEMPO 1718/1721 FEW026TCU BECMG 1719/1723 VRB02KT PROB30 TEMPO 1721/1802 5000 -TSRA FEW030CB BECMG 1806/1809 02012KT PROB40 TEMPO 1807/1812 02015G25KT BECMG 1812/1815 32012KT

4,000以上の空港の気象観測と天気予報(METAR報とTAF報)

利用可能な観測所は地図上に黄色い丸と赤い丸で示す。

丸の上にカーソルを重ねると観測所名を参照できる。

次にクリックすると気象観測と天気予報を参照できる。

マップの切り替え:黒色「×」印の緑ボタンをクリックして拡大、「-」印の緑ボタンをクリックして縮小、緑色の三角印をクリックして隣りの地図に切り替え


METAR-TAF: